Time,TemperatureF,DewpointF,PressureIn,WindDirection,WindDirectionDegrees,WindSpeedMPH,WindSpeedGustMPH,Humidity,HourlyPrecipIn,Conditions,Clouds,dailyrainin,SoftwareType,DateUTC
2014-08-23 00:05:00,71.5,68.0,29.97,NE,42,3.0,4.0,87,0.00,,,0.00,weatherlink.com 1.10,2014-08-23 04:05:00,
2014-08-23 00:25:00,71.3,68.0,29.97,NE,38,0.0,3.0,88,0.00,,,0.00,weatherlink.com 1.10,2014-08-23 04:25:00,
2014-08-23 00:43:00,71.0,67.0,29.97,NE,39,0.0,2.0,88,0.00,,,0.00,weatherlink.com 1.10,2014-08-23 04:43:00,
2014-08-23 01:01:00,70.3,67.0,29.97,NE,39,0.0,1.0,90,0.00,,,0.00,weatherlink.com 1.10,2014-08-23 05:01:00,
2014-08-23 01:19:00,70.0,67.0,29.97,NE,39,0.0,1.0,91,0.00,,,0.00,weatherlink.com 1.10,2014-08-23 05:19:00,
2014-08-23 01:37:00,69.6,67.0,29.96,NE,39,0.0,2.0,91,0.00,,,0.00,weatherlink.com 1.10,2014-08-23 05:37:00,
2014-08-23 01:55:00,68.9,67.0,29.96,NE,39,0.0,0.0,92,0.00,,,0.00,weatherlink.com 1.10,2014-08-23 05:55:00,
2014-08-23 02:15:00,68.9,67.0,29.95,NE,39,0.0,0.0,92,0.00,,,0.00,weatherlink.com 1.10,2014-08-23 06:15:00,
2014-08-23 02:33:00,68.6,66.0,29.94,NE,39,0.0,0.0,90,0.00,,,0.00,weatherlink.com 1.10,2014-08-23 06:33:00,
2014-08-23 02:51:00,68.7,66.0,29.94,NE,39,0.0,0.0,91,0.00,,,0.00,weatherlink.com 1.10,2014-08-23 06:51:00,
2014-08-23 03:09:00,68.8,65.0,29.94,NE,39,0.0,0.0,88,0.00,,,0.00,weatherlink.com 1.10,2014-08-23 07:09:00,
2014-08-23 03:27:00,68.5,66.0,29.94,NNE,28,0.0,0.0,91,0.00,,,0.00,weatherlink.com 1.10,2014-08-23 07:27:00,
2014-08-23 03:47:00,68.4,65.0,29.94,NNE,27,0.0,0.0,89,0.00,,,0.00,weatherlink.com 1.10,2014-08-23 07:47:00,
2014-08-23 04:05:00,68.2,66.0,29.95,NNE,27,0.0,0.0,91,0.00,,,0.00,weatherlink.com 1.10,2014-08-23 08:05:00,
2014-08-23 04:23:00,67.9,65.0,29.95,WSW,246,0.0,0.0,91,0.00,,,0.00,weatherlink.com 1.10,2014-08-23 08:23:00,
2014-08-23 04:41:00,67.6,65.0,29.94,WSW,246,0.0,0.0,92,0.00,,,0.00,weatherlink.com 1.10,2014-08-23 08:41:00,
2014-08-23 04:58:00,67.1,65.0,29.95,NNW,328,0.0,0.0,92,0.00,,,0.00,weatherlink.com 1.10,2014-08-23 08:58:00,
2014-08-23 05:14:00,67.6,65.0,29.95,NNW,327,0.0,2.0,90,0.00,,,0.00,weatherlink.com 1.10,2014-08-23 09:14:00,
2014-08-23 05:29:00,67.6,64.0,29.95,NNW,327,2.0,3.0,89,0.00,,,0.00,weatherlink.com 1.10,2014-08-23 09:29:00,
2014-08-23 05:44:00,67.2,64.0,29.95,NNW,338,1.0,3.0,89,0.00,,,0.00,weatherlink.com 1.10,2014-08-23 09:44:00,
2014-08-23 05:59:00,67.3,64.0,29.96,NNW,342,0.0,2.0,89,0.00,,,0.00,weatherlink.com 1.10,2014-08-23 09:59:00,
2014-08-23 06:14:00,67.4,64.0,29.96,NNW,338,0.0,3.0,89,0.00,,,0.00,weatherlink.com 1.10,2014-08-23 10:14:00,
2014-08-23 06:29:00,67.4,64.0,29.96,NNW,332,2.0,4.0,88,0.00,,,0.00,weatherlink.com 1.10,2014-08-23 10:29:00,